createdAt,value
2022-08-30T00:00:48.557Z,99.00
2022-08-30T00:03:17.097Z,98.90
2022-08-30T00:05:46.837Z,98.70
2022-08-30T00:08:15.630Z,99.00
2022-08-30T00:10:44.799Z,99.10
2022-08-30T00:13:14.725Z,99.20
2022-08-30T00:15:44.614Z,99.20
2022-08-30T00:18:12.939Z,99.40
2022-08-30T00:20:41.006Z,99.50
2022-08-30T00:23:09.126Z,99.10
2022-08-30T00:25:37.538Z,99.20
2022-08-30T00:28:05.604Z,99.20
2022-08-30T00:30:33.871Z,99.10
2022-08-30T00:33:03.342Z,99.10
2022-08-30T00:35:31.737Z,99.30
2022-08-30T00:38:00.007Z,99.30
2022-08-30T00:40:29.567Z,99.40
2022-08-30T00:43:00.039Z,99.60
2022-08-30T00:45:37.876Z,99.90
2022-08-30T00:48:08.166Z,99.50
2022-08-30T00:50:41.350Z,99.40
2022-08-30T00:53:14.378Z,99.50
2022-08-30T00:55:44.387Z,99.40
2022-08-30T00:58:19.891Z,99.50
2022-08-30T01:00:48.941Z,99.50
2022-08-30T01:03:18.650Z,99.30
2022-08-30T01:05:47.942Z,99.20
2022-08-30T01:08:16.228Z,99.00
2022-08-30T01:10:45.005Z,99.10
2022-08-30T01:13:15.127Z,98.90
2022-08-30T01:15:43.991Z,99.20
2022-08-30T01:18:17.395Z,99.00
2022-08-30T01:20:57.946Z,98.60
2022-08-30T01:23:29.163Z,98.40
2022-08-30T01:25:59.882Z,98.80
2022-08-30T01:28:30.919Z,98.30
2022-08-30T01:30:59.227Z,98.30
2022-08-30T01:33:27.662Z,98.30
2022-08-30T01:36:05.604Z,98.00
2022-08-30T01:38:39.720Z,97.80
2022-08-30T01:41:12.613Z,97.80
2022-08-30T01:43:41.078Z,98.00
2022-08-30T01:46:11.035Z,97.80
2022-08-30T01:48:40.089Z,97.70
2022-08-30T01:51:12.252Z,97.80
2022-08-30T01:53:44.035Z,97.80
2022-08-30T01:56:13.187Z,97.70
2022-08-30T01:58:41.582Z,97.70
2022-08-30T02:01:13.676Z,97.70
2022-08-30T02:03:43.236Z,97.80
2022-08-30T02:06:16.129Z,97.90
2022-08-30T02:08:46.004Z,97.70
2022-08-30T02:11:38.651Z,97.90
2022-08-30T02:14:07.968Z,97.60
2022-08-30T02:16:45.230Z,97.70
2022-08-30T02:19:35.540Z,97.60
2022-08-30T02:22:18.359Z,97.80
2022-08-30T02:24:57.312Z,97.50
2022-08-30T02:27:28.474Z,97.50
2022-08-30T02:29:59.331Z,97.70
2022-08-30T02:32:27.537Z,97.70
2022-08-30T02:35:08.739Z,97.50
2022-08-30T02:37:49.197Z,97.70
2022-08-30T02:40:27.948Z,97.80
2022-08-30T02:42:56.956Z,97.70
2022-08-30T02:45:38.785Z,97.80
2022-08-30T02:48:17.430Z,97.90
2022-08-30T02:51:09.500Z,97.80
2022-08-30T02:53:53.296Z,97.80
2022-08-30T02:56:33.688Z,98.10
2022-08-30T02:59:07.983Z,98.20
2022-08-30T03:01:48.948Z,98.30
2022-08-30T03:04:17.182Z,98.20
2022-08-30T03:07:03.299Z,98.30
2022-08-30T03:09:39.471Z,98.40
2022-08-30T03:12:18.080Z,98.10
2022-08-30T03:15:11.348Z,98.20
2022-08-30T03:17:49.118Z,98.30
2022-08-30T03:20:36.106Z,98.40
2022-08-30T03:23:21.496Z,98.40
2022-08-30T03:26:02.476Z,98.40
2022-08-30T03:28:50.569Z,98.70
2022-08-30T03:31:31.187Z,98.70
2022-08-30T03:34:22.808Z,98.70
2022-08-30T03:37:02.284Z,98.60
2022-08-30T03:39:45.296Z,98.70
2022-08-30T03:42:16.007Z,98.80
2022-08-30T03:45:00.262Z,98.70
2022-08-30T03:47:35.871Z,98.80
2022-08-30T03:50:05.544Z,98.70
2022-08-30T03:52:39.337Z,99.30
2022-08-30T03:55:20.631Z,99.00
2022-08-30T03:58:00.264Z,99.20
2022-08-30T04:00:59.032Z,99.30
2022-08-30T04:03:33.007Z,99.60
2022-08-30T04:06:05.729Z,99.60
2022-08-30T04:08:38.291Z,99.50
2022-08-30T04:11:14.728Z,99.80
2022-08-30T04:14:02.929Z,99.90
2022-08-30T04:16:34.946Z,99.90
2022-08-30T04:19:06.041Z,99.90
2022-08-30T04:21:44.748Z,99.90
2022-08-30T04:24:15.893Z,99.90
2022-08-30T04:26:52.691Z,99.90
2022-08-30T04:29:32.508Z,99.90
2022-08-30T04:32:12.834Z,99.90
2022-08-30T04:34:46.135Z,99.90
2022-08-30T04:37:26.557Z,99.90
2022-08-30T04:40:23.540Z,99.90
2022-08-30T04:43:14.143Z,99.90
2022-08-30T04:46:03.706Z,99.90
2022-08-30T04:48:43.323Z,99.90
2022-08-30T04:51:18.951Z,99.90
2022-08-30T04:54:01.894Z,99.90
2022-08-30T04:56:47.261Z,99.90
2022-08-30T04:59:36.275Z,99.90
2022-08-30T05:02:12.093Z,99.90
2022-08-30T05:05:16.629Z,99.90
2022-08-30T05:07:57.332Z,99.90
2022-08-30T05:10:30.965Z,99.90
2022-08-30T05:13:10.179Z,99.90
2022-08-30T05:16:03.390Z,99.90
2022-08-30T05:18:42.102Z,99.90
2022-08-30T05:21:30.777Z,99.90
2022-08-30T05:24:07.536Z,99.90
2022-08-30T05:26:54.322Z,99.90
2022-08-30T05:29:22.430Z,99.90
2022-08-30T05:31:59.400Z,99.90
2022-08-30T05:34:38.364Z,99.90
2022-08-30T05:37:17.228Z,99.90
2022-08-30T05:39:51.163Z,99.90
2022-08-30T05:42:27.854Z,99.90
2022-08-30T05:44:59.154Z,99.90
2022-08-30T05:47:38.443Z,99.90
2022-08-30T05:50:11.028Z,99.90
2022-08-30T05:52:51.630Z,99.90
2022-08-30T05:55:30.255Z,99.90
2022-08-30T05:58:01.639Z,99.90
2022-08-30T06:00:31.899Z,99.90
2022-08-30T06:03:02.396Z,99.90
2022-08-30T06:05:34.749Z,99.90
2022-08-30T06:08:05.577Z,99.90
2022-08-30T06:10:41.854Z,99.90
2022-08-30T06:13:14.283Z,99.90
2022-08-30T06:15:46.274Z,99.90
2022-08-30T06:18:15.217Z,99.90
2022-08-30T06:20:44.921Z,99.90
2022-08-30T06:23:19.893Z,98.30
2022-08-30T06:25:50.470Z,97.60
2022-08-30T06:28:18.863Z,96.50
2022-08-30T06:30:48.650Z,95.30
2022-08-30T06:33:18.355Z,94.20
2022-08-30T06:35:58.583Z,94.00
2022-08-30T06:38:36.917Z,94.00
2022-08-30T06:41:07.665Z,94.40
2022-08-30T06:43:46.759Z,94.30
2022-08-30T06:46:21.446Z,94.20
2022-08-30T06:48:52.235Z,94.10
2022-08-30T06:51:32.726Z,94.00
2022-08-30T06:54:09.250Z,93.30
2022-08-30T06:56:57.552Z,92.90
2022-08-30T06:59:31.490Z,92.80
2022-08-30T07:02:07.535Z,92.00
2022-08-30T07:04:36.339Z,90.90
2022-08-30T07:07:06.536Z,90.40
2022-08-30T07:09:37.203Z,86.10
2022-08-30T07:12:17.474Z,83.00
2022-08-30T07:14:50.659Z,82.80
2022-08-30T07:17:37.116Z,77.50
2022-08-30T07:20:06.883Z,72.80
2022-08-30T07:22:39.082Z,72.90
2022-08-30T07:25:09.128Z,72.00
2022-08-30T07:27:45.995Z,72.20
2022-08-30T07:30:17.191Z,73.10
2022-08-30T07:32:49.977Z,75.00
2022-08-30T07:35:22.393Z,72.00
2022-08-30T07:37:54.451Z,71.60
2022-08-30T07:40:31.061Z,70.30
2022-08-30T07:43:02.086Z,71.00
2022-08-30T07:45:38.336Z,69.10
2022-08-30T07:48:15.912Z,67.70
2022-08-30T07:51:04.562Z,66.60
2022-08-30T07:53:36.764Z,66.20
2022-08-30T07:56:13.188Z,59.60
2022-08-30T07:58:44.329Z,60.10
2022-08-30T08:01:25.137Z,59.10
2022-08-30T08:03:53.521Z,61.80
2022-08-30T08:06:32.937Z,60.80
2022-08-30T08:09:10.030Z,61.60
2022-08-30T08:11:42.605Z,56.60
2022-08-30T08:14:16.496Z,55.80
2022-08-30T08:16:53.223Z,54.20
2022-08-30T08:19:31.737Z,53.50
2022-08-30T08:22:20.581Z,51.50
2022-08-30T08:25:00.208Z,53.60
2022-08-30T08:27:39.145Z,53.20
2022-08-30T08:30:26.468Z,52.40
2022-08-30T08:33:06.965Z,52.50
2022-08-30T08:35:42.560Z,53.40
2022-08-30T08:38:11.005Z,52.90
2022-08-30T08:40:58.694Z,51.70
2022-08-30T08:43:39.524Z,51.80
2022-08-30T08:46:25.488Z,51.50
2022-08-30T08:49:16.358Z,51.10
2022-08-30T08:52:12.507Z,51.70
2022-08-30T08:54:47.408Z,50.10
2022-08-30T08:57:24.706Z,49.20
2022-08-30T09:00:03.024Z,47.90
2022-08-30T09:02:55.783Z,47.30
2022-08-30T09:05:34.599Z,46.80
2022-08-30T09:08:18.887Z,48.30
2022-08-30T09:10:58.842Z,48.40
2022-08-30T09:13:38.553Z,46.60
2022-08-30T09:16:49.746Z,45.90
2022-08-30T09:19:48.075Z,47.00
2022-08-30T09:22:26.461Z,45.00
2022-08-30T09:25:19.395Z,48.00
2022-08-30T09:28:12.266Z,44.90
2022-08-30T09:30:42.990Z,43.40
2022-08-30T09:33:24.609Z,44.50
2022-08-30T09:36:14.272Z,42.70
2022-08-30T09:38:45.120Z,41.20
2022-08-30T09:41:40.044Z,42.80
2022-08-30T09:44:19.052Z,39.70
2022-08-30T09:46:58.697Z,42.90
2022-08-30T09:49:54.075Z,39.60
2022-08-30T09:53:10.021Z,39.10
2022-08-30T09:56:11.102Z,39.10
2022-08-30T09:59:10.598Z,40.90
2022-08-30T10:01:53.775Z,38.50
2022-08-30T10:04:41.102Z,39.10
2022-08-30T10:07:32.627Z,40.50
2022-08-30T10:10:08.841Z,37.70
2022-08-30T10:12:56.510Z,37.20
2022-08-30T10:15:40.558Z,35.90
2022-08-30T10:18:31.693Z,36.30
2022-08-30T10:21:19.249Z,37.30
2022-08-30T10:24:27.410Z,38.30
2022-08-30T10:27:07.504Z,37.20
2022-08-30T10:29:43.345Z,36.50
2022-08-30T10:32:24.352Z,35.70
2022-08-30T10:35:10.618Z,36.10
2022-08-30T10:38:10.573Z,36.70
2022-08-30T10:41:04.756Z,35.60
2022-08-30T10:44:08.963Z,35.40
2022-08-30T10:47:23.326Z,35.50
2022-08-30T10:50:45.754Z,36.00
2022-08-30T10:54:01.345Z,36.80
2022-08-30T10:56:45.442Z,36.30
2022-08-30T10:59:37.111Z,37.90
2022-08-30T11:02:53.215Z,35.20
2022-08-30T11:06:10.635Z,34.40
2022-08-30T11:09:10.683Z,35.40
2022-08-30T11:12:34.981Z,36.80
2022-08-30T11:15:28.089Z,36.70
2022-08-30T11:21:55.617Z,35.40
2022-08-30T11:25:31.448Z,36.30
2022-08-30T11:28:05.969Z,37.50
2022-08-30T11:31:18.731Z,38.90
2022-08-30T11:34:33.563Z,39.00
2022-08-30T11:37:11.642Z,39.10
2022-08-30T11:40:03.902Z,39.50
2022-08-30T11:42:58.084Z,39.80
2022-08-30T11:45:56.851Z,40.00
2022-08-30T11:49:28.273Z,40.60
2022-08-30T11:52:46.820Z,43.50
2022-08-30T11:56:03.231Z,44.00
2022-08-30T11:59:03.186Z,42.00
2022-08-30T12:01:54.198Z,41.70
2022-08-30T12:04:45.023Z,44.60
2022-08-30T12:08:03.255Z,44.10
2022-08-30T12:14:09.434Z,42.40
2022-08-30T12:17:07.444Z,42.50
2022-08-30T12:19:50.552Z,42.00
2022-08-30T12:22:37.184Z,42.30
2022-08-30T12:25:29.280Z,42.50
2022-08-30T12:28:35.694Z,45.00
2022-08-30T12:31:35.236Z,43.60
2022-08-30T12:34:25.606Z,43.20
2022-08-30T12:37:14.614Z,43.40
2022-08-30T12:40:13.203Z,42.60
2022-08-30T12:43:18.380Z,42.50
2022-08-30T12:46:12.237Z,42.30
2022-08-30T12:48:43.626Z,43.20
2022-08-30T12:51:42.531Z,43.00
2022-08-30T12:54:24.359Z,43.30
2022-08-30T12:57:13.925Z,44.00
2022-08-30T13:00:06.478Z,43.10
2022-08-30T13:02:53.239Z,43.70
2022-08-30T13:05:52.805Z,42.70
2022-08-30T13:08:29.722Z,42.50
2022-08-30T13:11:09.215Z,42.90
2022-08-30T13:14:01.911Z,42.60
2022-08-30T13:16:46.489Z,43.10
2022-08-30T13:19:34.324Z,43.10
2022-08-30T13:22:09.878Z,42.80
2022-08-30T13:24:57.008Z,43.20
2022-08-30T13:27:37.646Z,43.50
2022-08-30T13:30:29.069Z,43.70
2022-08-30T13:33:07.078Z,44.90
2022-08-30T13:35:57.388Z,45.80
2022-08-30T13:38:29.835Z,43.20
2022-08-30T13:41:13.122Z,42.70
2022-08-30T13:46:40.296Z,42.20
2022-08-30T13:52:26.373Z,44.00
2022-08-30T13:54:59.726Z,43.80
2022-08-30T14:00:25.870Z,42.90
2022-08-30T14:03:00.904Z,43.00
2022-08-30T14:06:04.927Z,42.80
2022-08-30T14:08:52.374Z,43.30
2022-08-30T14:11:31.183Z,43.80
2022-08-30T14:14:32.296Z,43.30
2022-08-30T14:16:52.366Z,42.70
2022-08-30T14:19:26.127Z,43.10
2022-08-30T14:22:01.656Z,43.50
2022-08-30T14:24:31.748Z,42.80
2022-08-30T14:27:04.051Z,43.40
2022-08-30T14:29:32.425Z,43.00
2022-08-30T14:32:00.765Z,43.10
2022-08-30T14:34:29.241Z,43.00
2022-08-30T14:37:08.251Z,41.90
2022-08-30T14:39:37.772Z,42.20
2022-08-30T14:42:18.709Z,42.40
2022-08-30T14:44:57.478Z,42.50
2022-08-30T14:47:39.095Z,42.20
2022-08-30T14:50:16.546Z,42.50
2022-08-30T14:52:59.835Z,42.80
2022-08-30T14:55:35.246Z,42.80
2022-08-30T14:58:09.195Z,43.20
2022-08-30T15:00:42.869Z,43.70
2022-08-30T15:03:13.154Z,43.80
2022-08-30T15:05:50.071Z,42.80
2022-08-30T15:08:21.536Z,42.80
2022-08-30T15:11:10.913Z,43.00
2022-08-30T15:13:44.633Z,43.40
2022-08-30T15:16:16.149Z,42.60
2022-08-30T15:18:45.140Z,44.00
2022-08-30T15:21:21.542Z,43.80
2022-08-30T15:23:55.460Z,42.60
2022-08-30T15:26:24.444Z,42.70
2022-08-30T15:29:01.414Z,42.70
2022-08-30T15:31:44.346Z,43.70
2022-08-30T15:34:19.397Z,43.90
2022-08-30T15:36:57.386Z,45.20
2022-08-30T15:39:40.948Z,45.60
2022-08-30T15:42:19.508Z,45.30
2022-08-30T15:45:04.368Z,45.30
2022-08-30T15:47:39.588Z,46.10
2022-08-30T15:50:15.176Z,45.30
2022-08-30T15:52:48.566Z,44.90
2022-08-30T15:55:16.664Z,45.20
2022-08-30T15:57:44.856Z,46.80
2022-08-30T16:00:23.421Z,45.10
2022-08-30T16:02:55.614Z,44.10
2022-08-30T16:05:29.324Z,43.90
2022-08-30T16:08:04.089Z,44.70
2022-08-30T16:10:39.859Z,45.40
2022-08-30T16:13:16.982Z,44.50
2022-08-30T16:15:48.910Z,46.40
2022-08-30T16:18:20.160Z,46.20
2022-08-30T16:21:02.257Z,45.90
2022-08-30T16:23:33.871Z,47.00
2022-08-30T16:26:04.222Z,46.10
2022-08-30T16:28:35.742Z,46.50
2022-08-30T16:31:07.532Z,46.70
2022-08-30T16:33:42.583Z,46.20
2022-08-30T16:36:16.175Z,45.90
2022-08-30T16:38:46.404Z,46.10
2022-08-30T16:41:24.923Z,47.30
2022-08-30T16:43:56.921Z,47.00
2022-08-30T16:46:33.419Z,47.10
2022-08-30T16:49:10.699Z,47.10
2022-08-30T16:51:43.012Z,47.00
2022-08-30T16:54:24.000Z,46.40
2022-08-30T16:56:56.774Z,46.90
2022-08-30T16:59:49.540Z,47.90
2022-08-30T17:02:27.828Z,48.50
2022-08-30T17:04:59.314Z,48.80
2022-08-30T17:07:29.427Z,49.30
2022-08-30T17:10:22.962Z,49.20
2022-08-30T17:12:55.647Z,49.60
2022-08-30T17:15:23.879Z,49.80
2022-08-30T17:18:06.677Z,51.20
2022-08-30T17:20:38.129Z,51.40
2022-08-30T17:23:38.525Z,51.30
2022-08-30T17:26:14.509Z,52.70
2022-08-30T17:28:48.085Z,53.90
2022-08-30T17:31:16.158Z,54.50
2022-08-30T17:33:55.119Z,53.80
2022-08-30T17:36:26.039Z,54.20
2022-08-30T17:38:54.127Z,55.20
2022-08-30T17:41:25.895Z,55.50
2022-08-30T17:44:10.261Z,55.70
2022-08-30T17:46:40.330Z,56.70
2022-08-30T17:49:13.277Z,55.70
2022-08-30T17:51:54.169Z,55.80
2022-08-30T17:54:26.166Z,56.40
2022-08-30T17:57:10.755Z,56.00
2022-08-30T17:59:46.587Z,56.80
2022-08-30T18:02:30.131Z,56.60
2022-08-30T18:05:12.417Z,57.10
2022-08-30T18:07:56.003Z,57.50
2022-08-30T18:10:26.749Z,57.70
2022-08-30T18:13:13.379Z,58.30
2022-08-30T18:15:44.064Z,58.20
2022-08-30T18:18:19.987Z,58.70
2022-08-30T18:20:57.799Z,59.00
2022-08-30T18:23:26.107Z,59.30
2022-08-30T18:28:52.329Z,60.30
2022-08-30T18:31:21.026Z,60.40
2022-08-30T18:34:00.235Z,60.30
2022-08-30T18:36:34.502Z,61.50
2022-08-30T18:39:08.552Z,61.60
2022-08-30T18:47:18.023Z,64.00
2022-08-30T18:50:06.304Z,63.20
2022-08-30T18:52:45.236Z,65.90
2022-08-30T18:55:15.770Z,64.90
2022-08-30T18:57:52.198Z,65.20
2022-08-30T19:00:23.687Z,65.60
2022-08-30T19:02:58.341Z,66.50
2022-08-30T19:05:35.539Z,67.60
2022-08-30T19:08:07.100Z,67.50
2022-08-30T19:10:37.149Z,67.50
2022-08-30T19:13:08.973Z,68.50
2022-08-30T19:15:37.593Z,70.40
2022-08-30T19:18:17.167Z,69.40
2022-08-30T19:20:46.294Z,69.20
2022-08-30T19:23:17.055Z,69.60
2022-08-30T19:25:52.679Z,70.90
2022-08-30T19:28:24.357Z,71.10
2022-08-30T19:30:53.349Z,71.10
2022-08-30T19:33:34.975Z,72.10
2022-08-30T19:36:06.210Z,72.50
2022-08-30T19:38:37.931Z,72.90
2022-08-30T19:41:13.625Z,73.30
2022-08-30T19:43:44.914Z,73.70
2022-08-30T19:46:15.420Z,76.90
2022-08-30T19:48:50.337Z,75.00
2022-08-30T19:51:24.262Z,74.60
2022-08-30T19:53:58.978Z,75.40
2022-08-30T19:56:29.612Z,75.40
2022-08-30T19:59:05.878Z,75.60
2022-08-30T20:01:34.215Z,75.60
2022-08-30T20:04:13.139Z,77.70
2022-08-30T20:06:50.288Z,75.80
2022-08-30T20:09:25.789Z,77.00
2022-08-30T20:11:59.395Z,77.90
2022-08-30T20:14:37.182Z,76.80
2022-08-30T20:17:13.956Z,79.40
2022-08-30T20:19:48.170Z,77.90
2022-08-30T20:22:21.814Z,77.80
2022-08-30T20:24:53.579Z,79.70
2022-08-30T20:27:26.961Z,80.70
2022-08-30T20:30:07.716Z,79.50
2022-08-30T20:32:37.346Z,80.00
2022-08-30T20:35:09.790Z,80.00
2022-08-30T20:37:38.039Z,81.90
2022-08-30T20:40:16.721Z,80.00
2022-08-30T20:43:14.485Z,82.30
2022-08-30T20:45:58.951Z,81.20
2022-08-30T20:48:36.608Z,83.10
2022-08-30T20:51:24.822Z,82.40
2022-08-30T20:53:57.276Z,84.30
2022-08-30T20:56:35.612Z,82.50
2022-08-30T20:59:06.350Z,83.40
2022-08-30T21:01:46.428Z,83.00
2022-08-30T21:04:25.717Z,83.10
2022-08-30T21:06:58.470Z,83.10
2022-08-30T21:09:27.059Z,84.00
2022-08-30T21:12:05.110Z,83.00
2022-08-30T21:14:35.999Z,83.20
2022-08-30T21:17:09.544Z,83.50
2022-08-30T21:19:43.930Z,84.50
2022-08-30T21:22:25.059Z,84.40
2022-08-30T21:25:03.351Z,84.20
2022-08-30T21:27:35.874Z,84.30
2022-08-30T21:30:13.491Z,84.40
2022-08-30T21:32:51.215Z,85.00
2022-08-30T21:35:43.056Z,84.50
2022-08-30T21:38:24.230Z,83.60
2022-08-30T21:41:27.941Z,85.40
2022-08-30T21:44:22.869Z,84.60
2022-08-30T21:47:03.144Z,85.60
2022-08-30T21:49:46.115Z,87.20
2022-08-30T21:52:25.262Z,85.20
2022-08-30T21:58:10.887Z,85.80
2022-08-30T22:00:42.134Z,84.60
2022-08-30T22:03:25.812Z,85.30
2022-08-30T22:06:08.082Z,86.30
2022-08-30T22:08:59.060Z,85.60
2022-08-30T22:11:33.815Z,86.20
2022-08-30T22:14:22.559Z,84.80
2022-08-30T22:17:06.804Z,86.30
2022-08-30T22:20:06.876Z,86.30
2022-08-30T22:22:54.669Z,87.00
2022-08-30T22:25:31.580Z,86.50
2022-08-30T22:28:22.655Z,86.40
2022-08-30T22:30:57.204Z,86.70
2022-08-30T22:39:54.862Z,88.70
2022-08-30T22:42:50.307Z,88.00
2022-08-30T22:45:38.996Z,87.30
2022-08-30T22:48:47.496Z,88.80
2022-08-30T22:54:21.462Z,88.60
2022-08-30T22:57:04.994Z,89.60
2022-08-30T23:00:08.034Z,88.80
2022-08-30T23:03:16.616Z,87.80
2022-08-30T23:06:11.630Z,88.50
2022-08-30T23:08:57.411Z,90.00
2022-08-30T23:11:33.527Z,87.30
2022-08-30T23:14:18.020Z,88.50
2022-08-30T23:17:29.674Z,88.30
2022-08-30T23:20:15.618Z,90.10
2022-08-30T23:23:33.739Z,90.40
2022-08-30T23:26:28.438Z,90.60
2022-08-30T23:29:25.238Z,90.20
2022-08-30T23:32:10.774Z,90.80
2022-08-30T23:34:59.571Z,89.70
2022-08-30T23:37:45.217Z,90.20
2022-08-30T23:40:45.936Z,90.80
2022-08-30T23:43:34.459Z,90.60
2022-08-30T23:46:20.027Z,90.90
2022-08-30T23:49:08.006Z,90.50
2022-08-30T23:52:05.563Z,90.90
2022-08-30T23:55:00.442Z,91.00
2022-08-30T23:57:51.308Z,91.40
